sensor_id;sensor_type;location;lat;lon;timestamp;pressure;altitude;pressure_sealevel;temperature;humidity
23589;BME280;11972;48.078;11.876;2023-04-27T00:01:47;95408.50;;;3.25;100.00
23589;BME280;11972;48.078;11.876;2023-04-27T00:05:48;95401.50;;;3.16;100.00
23589;BME280;11972;48.078;11.876;2023-04-27T00:09:48;95400.00;;;3.04;100.00
23589;BME280;11972;48.078;11.876;2023-04-27T00:13:48;95403.59;;;2.93;100.00
23589;BME280;11972;48.078;11.876;2023-04-27T00:17:49;95405.50;;;2.81;100.00
23589;BME280;11972;48.078;11.876;2023-04-27T00:21:49;95401.13;;;2.72;100.00
23589;BME280;11972;48.078;11.876;2023-04-27T00:25:49;95386.56;;;2.79;100.00
23589;BME280;11972;48.078;11.876;2023-04-27T00:29:50;95383.97;;;2.89;100.00
23589;BME280;11972;48.078;11.876;2023-04-27T00:33:50;95386.16;;;2.93;100.00
23589;BME280;11972;48.078;11.876;2023-04-27T00:37:52;95387.91;;;3.03;100.00
23589;BME280;11972;48.078;11.876;2023-04-27T00:41:53;95383.78;;;3.00;100.00
23589;BME280;11972;48.078;11.876;2023-04-27T00:45:54;95389.72;;;2.92;100.00
23589;BME280;11972;48.078;11.876;2023-04-27T00:49:54;95387.94;;;2.93;100.00
23589;BME280;11972;48.078;11.876;2023-04-27T00:53:58;95381.06;;;3.02;100.00
23589;BME280;11972;48.078;11.876;2023-04-27T00:57:59;95390.38;;;3.14;100.00
23589;BME280;11972;48.078;11.876;2023-04-27T01:02:00;95388.44;;;3.26;100.00
23589;BME280;11972;48.078;11.876;2023-04-27T01:06:01;95384.00;;;3.36;100.00
23589;BME280;11972;48.078;11.876;2023-04-27T01:10:01;95382.34;;;3.44;100.00
23589;BME280;11972;48.078;11.876;2023-04-27T01:14:05;95385.34;;;3.49;100.00
23589;BME280;11972;48.078;11.876;2023-04-27T01:18:06;95384.50;;;3.59;100.00
23589;BME280;11972;48.078;11.876;2023-04-27T01:22:06;95389.69;;;3.68;100.00
23589;BME280;11972;48.078;11.876;2023-04-27T01:26:07;95381.41;;;3.73;100.00
23589;BME280;11972;48.078;11.876;2023-04-27T01:30:07;95378.25;;;3.69;100.00
23589;BME280;11972;48.078;11.876;2023-04-27T01:34:08;95383.97;;;3.55;100.00
23589;BME280;11972;48.078;11.876;2023-04-27T01:38:08;95392.22;;;3.51;100.00
23589;BME280;11972;48.078;11.876;2023-04-27T01:42:09;95388.38;;;3.55;100.00
23589;BME280;11972;48.078;11.876;2023-04-27T01:46:12;95394.66;;;3.62;100.00
23589;BME280;11972;48.078;11.876;2023-04-27T01:50:13;95393.81;;;3.71;100.00
23589;BME280;11972;48.078;11.876;2023-04-27T01:54:13;95395.19;;;3.75;100.00
23589;BME280;11972;48.078;11.876;2023-04-27T01:58:13;95396.53;;;3.79;100.00
23589;BME280;11972;48.078;11.876;2023-04-27T02:02:14;95402.00;;;3.86;100.00
23589;BME280;11972;48.078;11.876;2023-04-27T02:06:14;95400.31;;;3.94;100.00
23589;BME280;11972;48.078;11.876;2023-04-27T02:10:14;95398.00;;;3.91;100.00
23589;BME280;11972;48.078;11.876;2023-04-27T02:14:14;95407.53;;;3.73;100.00
23589;BME280;11972;48.078;11.876;2023-04-27T02:18:15;95405.94;;;3.62;100.00
23589;BME280;11972;48.078;11.876;2023-04-27T02:22:15;95408.69;;;3.61;100.00
23589;BME280;11972;48.078;11.876;2023-04-27T02:26:20;95411.88;;;3.55;100.00
23589;BME280;11972;48.078;11.876;2023-04-27T02:30:21;95415.84;;;3.59;100.00
23589;BME280;11972;48.078;11.876;2023-04-27T02:34:21;95414.72;;;3.61;100.00
23589;BME280;11972;48.078;11.876;2023-04-27T02:38:22;95418.47;;;3.59;100.00
23589;BME280;11972;48.078;11.876;2023-04-27T02:42:22;95418.03;;;3.54;100.00
23589;BME280;11972;48.078;11.876;2023-04-27T02:46:22;95416.16;;;3.46;100.00
23589;BME280;11972;48.078;11.876;2023-04-27T02:50:23;95421.94;;;3.40;100.00
23589;BME280;11972;48.078;11.876;2023-04-27T02:54:23;95421.66;;;3.43;100.00
23589;BME280;11972;48.078;11.876;2023-04-27T02:58:24;95425.50;;;3.39;100.00
23589;BME280;11972;48.078;11.876;2023-04-27T03:02:25;95423.63;;;3.21;100.00
23589;BME280;11972;48.078;11.876;2023-04-27T03:06:25;95420.88;;;3.04;100.00
23589;BME280;11972;48.078;11.876;2023-04-27T03:10:26;95419.22;;;2.83;100.00
23589;BME280;11972;48.078;11.876;2023-04-27T03:14:27;95420.88;;;2.65;100.00
23589;BME280;11972;48.078;11.876;2023-04-27T03:18:27;95431.28;;;2.45;100.00
23589;BME280;11972;48.078;11.876;2023-04-27T03:22:27;95434.78;;;2.25;100.00
23589;BME280;11972;48.078;11.876;2023-04-27T03:26:28;95425.69;;;2.10;100.00
23589;BME280;11972;48.078;11.876;2023-04-27T03:30:28;95426.50;;;2.01;100.00
23589;BME280;11972;48.078;11.876;2023-04-27T03:34:29;95445.38;;;1.93;100.00
23589;BME280;11972;48.078;11.876;2023-04-27T03:38:30;95445.94;;;1.96;100.00
23589;BME280;11972;48.078;11.876;2023-04-27T03:42:30;95444.91;;;2.09;100.00
23589;BME280;11972;48.078;11.876;2023-04-27T03:46:30;95441.94;;;2.23;100.00
23589;BME280;11972;48.078;11.876;2023-04-27T03:50:31;95442.50;;;2.36;100.00
23589;BME280;11972;48.078;11.876;2023-04-27T03:54:31;95444.19;;;2.57;100.00
23589;BME280;11972;48.078;11.876;2023-04-27T03:58:31;95447.09;;;2.73;100.00
23589;BME280;11972;48.078;11.876;2023-04-27T04:02:32;95440.91;;;2.84;100.00
23589;BME280;11972;48.078;11.876;2023-04-27T04:06:32;95443.16;;;2.88;100.00
23589;BME280;11972;48.078;11.876;2023-04-27T04:10:32;95444.66;;;3.01;100.00
23589;BME280;11972;48.078;11.876;2023-04-27T04:14:33;95448.78;;;3.13;100.00
23589;BME280;11972;48.078;11.876;2023-04-27T04:18:34;95463.56;;;3.32;100.00
23589;BME280;11972;48.078;11.876;2023-04-27T04:22:35;95467.81;;;3.52;100.00
23589;BME280;11972;48.078;11.876;2023-04-27T04:26:35;95467.34;;;3.76;100.00
23589;BME280;11972;48.078;11.876;2023-04-27T04:30:37;95471.28;;;4.00;100.00
23589;BME280;11972;48.078;11.876;2023-04-27T04:34:38;95478.06;;;4.20;100.00
23589;BME280;11972;48.078;11.876;2023-04-27T04:38:38;95485.16;;;4.37;100.00
23589;BME280;11972;48.078;11.876;2023-04-27T04:42:39;95490.56;;;4.54;100.00
23589;BME280;11972;48.078;11.876;2023-04-27T04:46:41;95495.31;;;4.68;100.00
23589;BME280;11972;48.078;11.876;2023-04-27T04:50:41;95495.78;;;4.81;100.00
23589;BME280;11972;48.078;11.876;2023-04-27T04:54:41;95508.66;;;4.92;100.00
23589;BME280;11972;48.078;11.876;2023-04-27T04:58:41;95497.69;;;5.07;100.00
23589;BME280;11972;48.078;11.876;2023-04-27T05:02:42;95497.03;;;5.22;100.00
23589;BME280;11972;48.078;11.876;2023-04-27T05:06:42;95489.16;;;5.40;100.00
23589;BME280;11972;48.078;11.876;2023-04-27T05:10:48;95495.88;;;5.61;100.00
23589;BME280;11972;48.078;11.876;2023-04-27T05:14:52;95496.91;;;5.68;100.00
23589;BME280;11972;48.078;11.876;2023-04-27T05:18:52;95495.69;;;5.80;100.00
23589;BME280;11972;48.078;11.876;2023-04-27T05:22:53;95514.84;;;5.99;100.00
23589;BME280;11972;48.078;11.876;2023-04-27T05:26:54;95496.47;;;6.25;100.00
23589;BME280;11972;48.078;11.876;2023-04-27T05:30:54;95497.72;;;6.46;100.00
23589;BME280;11972;48.078;11.876;2023-04-27T05:34:55;95500.75;;;6.68;100.00
23589;BME280;11972;48.078;11.876;2023-04-27T05:38:55;95491.97;;;6.93;100.00
23589;BME280;11972;48.078;11.876;2023-04-27T05:42:55;95494.81;;;7.16;100.00
23589;BME280;11972;48.078;11.876;2023-04-27T05:46:56;95490.06;;;7.44;100.00
23589;BME280;11972;48.078;11.876;2023-04-27T05:51:02;95500.59;;;7.69;100.00
23589;BME280;11972;48.078;11.876;2023-04-27T05:55:04;95497.94;;;7.93;100.00
23589;BME280;11972;48.078;11.876;2023-04-27T05:59:04;95505.28;;;8.23;100.00
23589;BME280;11972;48.078;11.876;2023-04-27T06:03:05;95516.63;;;8.48;100.00
23589;BME280;11972;48.078;11.876;2023-04-27T06:07:10;95520.34;;;8.69;100.00
23589;BME280;11972;48.078;11.876;2023-04-27T06:11:10;95504.59;;;8.92;100.00
23589;BME280;11972;48.078;11.876;2023-04-27T06:15:11;95509.09;;;9.15;100.00
23589;BME280;11972;48.078;11.876;2023-04-27T06:19:11;95500.69;;;9.42;100.00
23589;BME280;11972;48.078;11.876;2023-04-27T06:23:11;95504.66;;;9.61;100.00
23589;BME280;11972;48.078;11.876;2023-04-27T06:27:12;95503.19;;;9.82;100.00
23589;BME280;11972;48.078;11.876;2023-04-27T06:31:12;95505.41;;;10.08;100.00
23589;BME280;11972;48.078;11.876;2023-04-27T06:35:13;95508.50;;;10.34;100.00
23589;BME280;11972;48.078;11.876;2023-04-27T06:39:13;95508.94;;;10.53;100.00
23589;BME280;11972;48.078;11.876;2023-04-27T06:43:13;95512.78;;;10.80;100.00
23589;BME280;11972;48.078;11.876;2023-04-27T06:47:14;95515.56;;;10.93;100.00
23589;BME280;11972;48.078;11.876;2023-04-27T06:51:14;95514.28;;;11.04;100.00
23589;BME280;11972;48.078;11.876;2023-04-27T06:55:15;95510.44;;;11.42;100.00
23589;BME280;11972;48.078;11.876;2023-04-27T06:59:15;95512.38;;;11.70;100.00
23589;BME280;11972;48.078;11.876;2023-04-27T07:03:15;95509.78;;;11.98;100.00
23589;BME280;11972;48.078;11.876;2023-04-27T07:07:16;95509.66;;;12.34;100.00
23589;BME280;11972;48.078;11.876;2023-04-27T07:11:17;95512.84;;;12.51;100.00
23589;BME280;11972;48.078;11.876;2023-04-27T07:15:17;95517.63;;;12.69;100.00
23589;BME280;11972;48.078;11.876;2023-04-27T07:19:18;95513.50;;;13.01;100.00
23589;BME280;11972;48.078;11.876;2023-04-27T07:23:18;95505.69;;;13.34;100.00
23589;BME280;11972;48.078;11.876;2023-04-27T07:27:18;95508.16;;;13.43;100.00
23589;BME280;11972;48.078;11.876;2023-04-27T07:31:19;95511.25;;;13.53;100.00
23589;BME280;11972;48.078;11.876;2023-04-27T07:35:19;95506.16;;;13.64;100.00
23589;BME280;11972;48.078;11.876;2023-04-27T07:39:20;95511.94;;;13.88;100.00
23589;BME280;11972;48.078;11.876;2023-04-27T07:43:20;95519.09;;;14.14;100.00
23589;BME280;11972;48.078;11.876;2023-04-27T07:47:22;95514.78;;;14.26;100.00
23589;BME280;11972;48.078;11.876;2023-04-27T07:51:23;95525.44;;;14.13;100.00
23589;BME280;11972;48.078;11.876;2023-04-27T07:55:24;95515.41;;;14.15;100.00
23589;BME280;11972;48.078;11.876;2023-04-27T07:59:28;95526.47;;;14.32;100.00
23589;BME280;11972;48.078;11.876;2023-04-27T08:03:28;95515.59;;;14.27;100.00
23589;BME280;11972;48.078;11.876;2023-04-27T08:07:28;95518.47;;;14.52;100.00
23589;BME280;11972;48.078;11.876;2023-04-27T08:11:28;95523.41;;;14.28;100.00
23589;BME280;11972;48.078;11.876;2023-04-27T08:15:29;95534.84;;;14.49;100.00
23589;BME280;11972;48.078;11.876;2023-04-27T08:19:29;95528.91;;;14.33;100.00
23589;BME280;11972;48.078;11.876;2023-04-27T08:23:30;95529.91;;;14.39;100.00
23589;BME280;11972;48.078;11.876;2023-04-27T08:27:32;95530.75;;;14.66;100.00
23589;BME280;11972;48.078;11.876;2023-04-27T08:31:32;95523.34;;;14.81;100.00
23589;BME280;11972;48.078;11.876;2023-04-27T08:35:33;95536.06;;;14.66;100.00
23589;BME280;11972;48.078;11.876;2023-04-27T08:39:33;95537.69;;;14.67;100.00
23589;BME280;11972;48.078;11.876;2023-04-27T08:43:34;95530.75;;;14.59;100.00
23589;BME280;11972;48.078;11.876;2023-04-27T08:47:35;95536.84;;;14.86;100.00
23589;BME280;11972;48.078;11.876;2023-04-27T08:51:37;95534.75;;;14.88;100.00
23589;BME280;11972;48.078;11.876;2023-04-27T08:55:37;95538.22;;;15.02;100.00
23589;BME280;11972;48.078;11.876;2023-04-27T08:59:41;95536.75;;;15.13;100.00
23589;BME280;11972;48.078;11.876;2023-04-27T09:03:44;95538.06;;;14.91;100.00
23589;BME280;11972;48.078;11.876;2023-04-27T09:08:03;95527.41;;;14.84;100.00
23589;BME280;11972;48.078;11.876;2023-04-27T09:12:18;95534.59;;;14.83;100.00
23589;BME280;11972;48.078;11.876;2023-04-27T09:16:24;95525.78;;;14.89;100.00
23589;BME280;11972;48.078;11.876;2023-04-27T09:20:25;95524.69;;;15.10;100.00
23589;BME280;11972;48.078;11.876;2023-04-27T09:24:26;95527.97;;;15.51;100.00
23589;BME280;11972;48.078;11.876;2023-04-27T09:28:27;95516.72;;;15.94;100.00
23589;BME280;11972;48.078;11.876;2023-04-27T09:32:28;95511.69;;;16.04;100.00
23589;BME280;11972;48.078;11.876;2023-04-27T09:36:29;95520.78;;;15.58;100.00
23589;BME280;11972;48.078;11.876;2023-04-27T09:40:31;95504.25;;;15.87;100.00
23589;BME280;11972;48.078;11.876;2023-04-27T09:44:32;95501.31;;;16.46;100.00
23589;BME280;11972;48.078;11.876;2023-04-27T09:48:33;95500.88;;;16.49;100.00
23589;BME280;11972;48.078;11.876;2023-04-27T09:52:34;95496.09;;;15.44;100.00
23589;BME280;11972;48.078;11.876;2023-04-27T10:01:04;95485.38;;;15.51;100.00
23589;BME280;11972;48.078;11.876;2023-04-27T10:05:20;95488.75;;;15.39;100.00
23589;BME280;11972;48.078;11.876;2023-04-27T10:09:26;95477.75;;;15.61;100.00
23589;BME280;11972;48.078;11.876;2023-04-27T10:13:30;95482.34;;;15.85;100.00
23589;BME280;11972;48.078;11.876;2023-04-27T10:17:33;95482.03;;;16.25;100.00
23589;BME280;11972;48.078;11.876;2023-04-27T10:21:34;95482.09;;;16.19;100.00
23589;BME280;11972;48.078;11.876;2023-04-27T10:25:39;95474.78;;;16.07;100.00
23589;BME280;11972;48.078;11.876;2023-04-27T10:29:42;95468.88;;;15.80;100.00
23589;BME280;11972;48.078;11.876;2023-04-27T10:33:42;95472.00;;;15.96;100.00
23589;BME280;11972;48.078;11.876;2023-04-27T10:37:43;95468.66;;;16.07;100.00
23589;BME280;11972;48.078;11.876;2023-04-27T10:41:55;95470.94;;;16.03;100.00
23589;BME280;11972;48.078;11.876;2023-04-27T10:46:13;95468.09;;;16.23;100.00
23589;BME280;11972;48.078;11.876;2023-04-27T10:50:14;95469.50;;;16.51;100.00
23589;BME280;11972;48.078;11.876;2023-04-27T10:54:15;95464.94;;;16.95;100.00
23589;BME280;11972;48.078;11.876;2023-04-27T10:58:21;95467.44;;;16.71;100.00
23589;BME280;11972;48.078;11.876;2023-04-27T11:02:27;95463.31;;;16.94;100.00
23589;BME280;11972;48.078;11.876;2023-04-27T11:06:28;95466.25;;;17.22;100.00
23589;BME280;11972;48.078;11.876;2023-04-27T11:10:29;95463.63;;;17.04;100.00
23589;BME280;11972;48.078;11.876;2023-04-27T11:14:30;95457.44;;;17.03;100.00
23589;BME280;11972;48.078;11.876;2023-04-27T11:18:31;95463.00;;;17.20;100.00
23589;BME280;11972;48.078;11.876;2023-04-27T11:22:43;95459.28;;;17.51;100.00
23589;BME280;11972;48.078;11.876;2023-04-27T11:26:50;95457.59;;;17.57;100.00
23589;BME280;11972;48.078;11.876;2023-04-27T11:30:58;95455.03;;;17.62;100.00
23589;BME280;11972;48.078;11.876;2023-04-27T11:34:59;95458.03;;;17.84;100.00
23589;BME280;11972;48.078;11.876;2023-04-27T11:38:59;95462.78;;;17.82;100.00
23589;BME280;11972;48.078;11.876;2023-04-27T11:43:00;95472.78;;;17.26;99.86
23589;BME280;11972;48.078;11.876;2023-04-27T11:47:05;95467.13;;;16.61;100.00
23589;BME280;11972;48.078;11.876;2023-04-27T11:51:10;95465.09;;;16.81;100.00
23589;BME280;11972;48.078;11.876;2023-04-27T11:55:13;95469.91;;;17.40;100.00
23589;BME280;11972;48.078;11.876;2023-04-27T11:59:18;95474.22;;;17.71;100.00
23589;BME280;11972;48.078;11.876;2023-04-27T12:03:19;95470.59;;;17.35;100.00
23589;BME280;11972;48.078;11.876;2023-04-27T12:07:20;95486.09;;;17.45;100.00
23589;BME280;11972;48.078;11.876;2023-04-27T12:11:21;95490.13;;;17.17;99.87
23589;BME280;11972;48.078;11.876;2023-04-27T12:15:21;95479.47;;;16.80;100.00
23589;BME280;11972;48.078;11.876;2023-04-27T12:19:22;95474.59;;;16.96;100.00
23589;BME280;11972;48.078;11.876;2023-04-27T12:23:24;95475.63;;;17.43;100.00
23589;BME280;11972;48.078;11.876;2023-04-27T12:27:25;95481.78;;;17.44;100.00
23589;BME280;11972;48.078;11.876;2023-04-27T12:31:25;95485.97;;;17.03;100.00
23589;BME280;11972;48.078;11.876;2023-04-27T12:35:26;95485.19;;;16.84;99.52
23589;BME280;11972;48.078;11.876;2023-04-27T12:39:26;95489.69;;;17.20;100.00
23589;BME280;11972;48.078;11.876;2023-04-27T12:43:26;95482.00;;;17.42;100.00
23589;BME280;11972;48.078;11.876;2023-04-27T12:47:27;95489.28;;;17.65;100.00
23589;BME280;11972;48.078;11.876;2023-04-27T12:51:27;95474.78;;;17.91;100.00
23589;BME280;11972;48.078;11.876;2023-04-27T12:55:27;95476.34;;;18.46;100.00
23589;BME280;11972;48.078;11.876;2023-04-27T12:59:28;95476.09;;;17.70;96.16
23589;BME280;11972;48.078;11.876;2023-04-27T13:03:29;95482.63;;;17.56;96.60
23589;BME280;11972;48.078;11.876;2023-04-27T13:07:30;95473.13;;;17.60;96.39
23589;BME280;11972;48.078;11.876;2023-04-27T13:11:30;95477.22;;;17.93;98.19
23589;BME280;11972;48.078;11.876;2023-04-27T13:15:31;95464.72;;;18.52;95.57
23589;BME280;11972;48.078;11.876;2023-04-27T13:19:31;95460.53;;;18.32;93.98
23589;BME280;11972;48.078;11.876;2023-04-27T13:23:31;95464.03;;;18.68;94.94
23589;BME280;11972;48.078;11.876;2023-04-27T13:27:32;95450.13;;;19.47;96.69
23589;BME280;11972;48.078;11.876;2023-04-27T13:31:32;95447.16;;;20.22;91.63
23589;BME280;11972;48.078;11.876;2023-04-27T13:35:32;95453.25;;;20.18;88.86
23589;BME280;11972;48.078;11.876;2023-04-27T13:39:32;95448.84;;;20.12;85.52
23589;BME280;11972;48.078;11.876;2023-04-27T13:43:33;95447.06;;;19.55;83.19
23589;BME280;11972;48.078;11.876;2023-04-27T13:47:33;95455.31;;;18.49;82.70
23589;BME280;11972;48.078;11.876;2023-04-27T13:51:36;95461.06;;;17.69;87.28
23589;BME280;11972;48.078;11.876;2023-04-27T13:55:36;95453.94;;;17.21;88.98
23589;BME280;11972;48.078;11.876;2023-04-27T13:59:37;95450.78;;;17.43;93.90
23589;BME280;11972;48.078;11.876;2023-04-27T14:03:37;95455.94;;;17.86;95.42
23589;BME280;11972;48.078;11.876;2023-04-27T14:07:37;95450.06;;;18.19;94.13
23589;BME280;11972;48.078;11.876;2023-04-27T14:11:38;95452.16;;;18.52;97.26
23589;BME280;11972;48.078;11.876;2023-04-27T14:15:38;95440.75;;;18.22;93.24
23589;BME280;11972;48.078;11.876;2023-04-27T14:19:39;95448.41;;;17.95;93.84
23589;BME280;11972;48.078;11.876;2023-04-27T14:23:39;95437.50;;;17.36;95.00
23589;BME280;11972;48.078;11.876;2023-04-27T14:27:40;95448.78;;;17.08;96.42
23589;BME280;11972;48.078;11.876;2023-04-27T14:31:40;95437.75;;;17.04;97.38
23589;BME280;11972;48.078;11.876;2023-04-27T14:35:40;95437.41;;;17.61;98.31
23589;BME280;11972;48.078;11.876;2023-04-27T14:39:41;95421.53;;;17.90;97.00
23589;BME280;11972;48.078;11.876;2023-04-27T14:43:41;95432.13;;;17.54;96.34
23589;BME280;11972;48.078;11.876;2023-04-27T14:47:43;95431.22;;;17.91;95.88
23589;BME280;11972;48.078;11.876;2023-04-27T14:51:44;95425.53;;;18.34;95.35
23589;BME280;11972;48.078;11.876;2023-04-27T14:55:45;95425.00;;;19.65;97.68
23589;BME280;11972;48.078;11.876;2023-04-27T14:59:46;95413.81;;;20.91;94.96
23589;BME280;11972;48.078;11.876;2023-04-27T15:03:46;95409.97;;;21.52;90.80
23589;BME280;11972;48.078;11.876;2023-04-27T15:07:47;95414.03;;;22.14;87.61
23589;BME280;11972;48.078;11.876;2023-04-27T15:11:47;95411.56;;;22.13;76.67
23589;BME280;11972;48.078;11.876;2023-04-27T15:15:47;95411.56;;;20.83;73.57
23589;BME280;11972;48.078;11.876;2023-04-27T15:19:49;95418.53;;;20.11;75.37
23589;BME280;11972;48.078;11.876;2023-04-27T15:23:50;95415.81;;;20.45;80.99
23589;BME280;11972;48.078;11.876;2023-04-27T15:27:51;95426.47;;;21.17;86.14
23589;BME280;11972;48.078;11.876;2023-04-27T15:31:51;95426.84;;;21.04;88.06
23589;BME280;11972;48.078;11.876;2023-04-27T15:35:52;95421.47;;;21.48;88.00
23589;BME280;11972;48.078;11.876;2023-04-27T15:39:55;95410.13;;;22.05;86.42
23589;BME280;11972;48.078;11.876;2023-04-27T15:43:56;95408.22;;;21.68;85.64
23589;BME280;11972;48.078;11.876;2023-04-27T15:47:56;95404.03;;;21.28;86.46
23589;BME280;11972;48.078;11.876;2023-04-27T15:51:57;95402.84;;;21.68;87.44
23589;BME280;11972;48.078;11.876;2023-04-27T15:55:57;95403.19;;;22.09;83.46
23589;BME280;11972;48.078;11.876;2023-04-27T15:59:57;95402.47;;;21.87;81.86
23589;BME280;11972;48.078;11.876;2023-04-27T16:03:57;95405.00;;;21.98;85.49
23589;BME280;11972;48.078;11.876;2023-04-27T16:07:58;95391.56;;;22.31;83.58
23589;BME280;11972;48.078;11.876;2023-04-27T16:11:58;95388.91;;;22.09;81.50
23589;BME280;11972;48.078;11.876;2023-04-27T16:15:58;95386.13;;;21.93;82.05
23589;BME280;11972;48.078;11.876;2023-04-27T16:19:59;95400.50;;;21.01;84.70
23589;BME280;11972;48.078;11.876;2023-04-27T16:23:59;95401.56;;;20.78;87.23
23589;BME280;11972;48.078;11.876;2023-04-27T16:27:59;95405.84;;;21.01;88.46
23589;BME280;11972;48.078;11.876;2023-04-27T16:32:00;95409.78;;;20.71;90.16
23589;BME280;11972;48.078;11.876;2023-04-27T16:36:00;95403.41;;;20.39;92.35
23589;BME280;11972;48.078;11.876;2023-04-27T16:40:00;95405.59;;;19.74;94.15
23589;BME280;11972;48.078;11.876;2023-04-27T16:44:05;95410.00;;;18.95;96.92
23589;BME280;11972;48.078;11.876;2023-04-27T16:48:06;95414.56;;;18.82;99.72
23589;BME280;11972;48.078;11.876;2023-04-27T16:52:06;95396.25;;;19.03;100.00
23589;BME280;11972;48.078;11.876;2023-04-27T16:56:07;95401.00;;;18.49;100.00
23589;BME280;11972;48.078;11.876;2023-04-27T17:00:09;95399.69;;;17.81;100.00
23589;BME280;11972;48.078;11.876;2023-04-27T17:04:11;95406.38;;;17.60;100.00
23589;BME280;11972;48.078;11.876;2023-04-27T17:08:11;95405.63;;;18.65;100.00
23589;BME280;11972;48.078;11.876;2023-04-27T17:12:12;95390.75;;;20.17;100.00
23589;BME280;11972;48.078;11.876;2023-04-27T17:16:14;95385.47;;;20.78;99.50
23589;BME280;11972;48.078;11.876;2023-04-27T17:20:16;95389.19;;;20.77;97.43
23589;BME280;11972;48.078;11.876;2023-04-27T17:24:16;95376.97;;;20.08;96.58
23589;BME280;11972;48.078;11.876;2023-04-27T17:28:17;95389.84;;;19.04;98.19
23589;BME280;11972;48.078;11.876;2023-04-27T17:32:17;95393.09;;;18.30;100.00
23589;BME280;11972;48.078;11.876;2023-04-27T17:36:17;95394.28;;;17.46;100.00
23589;BME280;11972;48.078;11.876;2023-04-27T17:40:18;95394.06;;;16.87;100.00
23589;BME280;11972;48.078;11.876;2023-04-27T17:44:20;95385.38;;;16.73;100.00
23589;BME280;11972;48.078;11.876;2023-04-27T17:48:20;95391.50;;;16.19;100.00
23589;BME280;11972;48.078;11.876;2023-04-27T17:52:21;95394.31;;;15.80;100.00
23589;BME280;11972;48.078;11.876;2023-04-27T17:56:21;95389.06;;;15.67;100.00
23589;BME280;11972;48.078;11.876;2023-04-27T18:00:22;95391.13;;;15.33;100.00
23589;BME280;11972;48.078;11.876;2023-04-27T18:04:22;95401.03;;;14.81;100.00
23589;BME280;11972;48.078;11.876;2023-04-27T18:08:23;95400.38;;;14.28;100.00
23589;BME280;11972;48.078;11.876;2023-04-27T18:12:23;95406.53;;;13.88;100.00
23589;BME280;11972;48.078;11.876;2023-04-27T18:16:24;95406.53;;;13.49;100.00
23589;BME280;11972;48.078;11.876;2023-04-27T18:20:24;95405.22;;;13.05;100.00
23589;BME280;11972;48.078;11.876;2023-04-27T18:24:25;95414.06;;;12.64;100.00
23589;BME280;11972;48.078;11.876;2023-04-27T18:28:25;95408.16;;;12.27;100.00
23589;BME280;11972;48.078;11.876;2023-04-27T18:32:25;95414.69;;;11.97;100.00
23589;BME280;11972;48.078;11.876;2023-04-27T18:36:26;95414.59;;;11.62;100.00
23589;BME280;11972;48.078;11.876;2023-04-27T18:40:27;95416.16;;;11.28;100.00
23589;BME280;11972;48.078;11.876;2023-04-27T18:44:27;95415.59;;;10.97;100.00
23589;BME280;11972;48.078;11.876;2023-04-27T18:48:27;95434.19;;;10.67;100.00
23589;BME280;11972;48.078;11.876;2023-04-27T18:52:28;95434.47;;;10.42;100.00
23589;BME280;11972;48.078;11.876;2023-04-27T18:56:29;95429.19;;;10.13;100.00
23589;BME280;11972;48.078;11.876;2023-04-27T19:00:29;95438.50;;;9.86;100.00
23589;BME280;11972;48.078;11.876;2023-04-27T19:04:31;95440.38;;;9.62;100.00
23589;BME280;11972;48.078;11.876;2023-04-27T19:08:32;95450.75;;;9.41;100.00
23589;BME280;11972;48.078;11.876;2023-04-27T19:12:32;95448.44;;;9.23;100.00
23589;BME280;11972;48.078;11.876;2023-04-27T19:16:33;95448.53;;;9.07;100.00
23589;BME280;11972;48.078;11.876;2023-04-27T19:20:35;95457.53;;;8.89;100.00
23589;BME280;11972;48.078;11.876;2023-04-27T19:24:35;95460.88;;;8.75;100.00
23589;BME280;11972;48.078;11.876;2023-04-27T19:28:35;95457.31;;;8.60;100.00
23589;BME280;11972;48.078;11.876;2023-04-27T19:32:36;95460.06;;;8.43;100.00
23589;BME280;11972;48.078;11.876;2023-04-27T19:36:36;95466.97;;;8.28;100.00
23589;BME280;11972;48.078;11.876;2023-04-27T19:40:36;95460.25;;;8.17;100.00
23589;BME280;11972;48.078;11.876;2023-04-27T19:44:37;95458.97;;;8.05;100.00
23589;BME280;11972;48.078;11.876;2023-04-27T19:48:37;95453.91;;;7.95;100.00
23589;BME280;11972;48.078;11.876;2023-04-27T19:52:37;95450.63;;;7.85;100.00
23589;BME280;11972;48.078;11.876;2023-04-27T19:56:38;95452.63;;;7.75;100.00
23589;BME280;11972;48.078;11.876;2023-04-27T20:00:38;95457.22;;;7.73;100.00
23589;BME280;11972;48.078;11.876;2023-04-27T20:04:39;95451.97;;;7.65;100.00
23589;BME280;11972;48.078;11.876;2023-04-27T20:08:40;95460.53;;;7.59;100.00
23589;BME280;11972;48.078;11.876;2023-04-27T20:12:40;95457.72;;;7.52;100.00
23589;BME280;11972;48.078;11.876;2023-04-27T20:16:40;95461.50;;;7.41;100.00
23589;BME280;11972;48.078;11.876;2023-04-27T20:20:41;95463.31;;;7.33;100.00
23589;BME280;11972;48.078;11.876;2023-04-27T20:24:41;95460.19;;;7.21;100.00
23589;BME280;11972;48.078;11.876;2023-04-27T20:28:42;95458.38;;;7.13;100.00
23589;BME280;11972;48.078;11.876;2023-04-27T20:32:43;95458.69;;;7.10;100.00
23589;BME280;11972;48.078;11.876;2023-04-27T20:36:43;95454.59;;;7.08;100.00
23589;BME280;11972;48.078;11.876;2023-04-27T20:40:43;95443.59;;;7.04;100.00
23589;BME280;11972;48.078;11.876;2023-04-27T20:44:45;95444.06;;;7.00;100.00
23589;BME280;11972;48.078;11.876;2023-04-27T20:48:45;95438.47;;;6.94;100.00
23589;BME280;11972;48.078;11.876;2023-04-27T20:52:45;95433.38;;;6.85;100.00
23589;BME280;11972;48.078;11.876;2023-04-27T20:56:45;95435.16;;;6.76;100.00